sensor_id;sensor_type;location;lat;lon;timestamp;temperature;humidity
18577;DHT22;9418;52.694;13.294;2023-04-10T00:01:41;3.10;44.70
18577;DHT22;9418;52.694;13.294;2023-04-10T00:04:07;3.00;43.90
18577;DHT22;9418;52.694;13.294;2023-04-10T00:06:34;3.00;44.10
18577;DHT22;9418;52.694;13.294;2023-04-10T00:09:01;3.00;42.40
18577;DHT22;9418;52.694;13.294;2023-04-10T00:11:29;2.90;43.10
18577;DHT22;9418;52.694;13.294;2023-04-10T00:13:55;2.90;43.40
18577;DHT22;9418;52.694;13.294;2023-04-10T00:16:22;2.90;43.50
18577;DHT22;9418;52.694;13.294;2023-04-10T00:18:48;2.80;42.80
18577;DHT22;9418;52.694;13.294;2023-04-10T00:21:15;2.80;42.50
18577;DHT22;9418;52.694;13.294;2023-04-10T00:23:42;2.80;42.70
18577;DHT22;9418;52.694;13.294;2023-04-10T00:26:09;2.80;43.10
18577;DHT22;9418;52.694;13.294;2023-04-10T00:28:37;2.70;44.30
18577;DHT22;9418;52.694;13.294;2023-04-10T00:31:04;2.70;46.10
18577;DHT22;9418;52.694;13.294;2023-04-10T00:33:30;2.60;47.80
18577;DHT22;9418;52.694;13.294;2023-04-10T00:35:57;2.60;48.60
18577;DHT22;9418;52.694;13.294;2023-04-10T00:38:24;2.50;50.10
18577;DHT22;9418;52.694;13.294;2023-04-10T00:40:50;2.50;51.40
18577;DHT22;9418;52.694;13.294;2023-04-10T00:43:17;2.50;51.00
18577;DHT22;9418;52.694;13.294;2023-04-10T00:45:46;2.50;50.50
18577;DHT22;9418;52.694;13.294;2023-04-10T00:48:13;2.50;50.60
18577;DHT22;9418;52.694;13.294;2023-04-10T00:50:40;2.50;53.70
18577;DHT22;9418;52.694;13.294;2023-04-10T00:53:07;2.50;53.60
18577;DHT22;9418;52.694;13.294;2023-04-10T00:55:33;2.50;50.00
18577;DHT22;9418;52.694;13.294;2023-04-10T00:58:00;2.50;49.20
18577;DHT22;9418;52.694;13.294;2023-04-10T01:00:27;2.50;47.80
18577;DHT22;9418;52.694;13.294;2023-04-10T01:02:55;2.40;49.40
18577;DHT22;9418;52.694;13.294;2023-04-10T01:05:21;2.30;49.20
18577;DHT22;9418;52.694;13.294;2023-04-10T01:07:54;2.30;50.90
18577;DHT22;9418;52.694;13.294;2023-04-10T01:10:28;2.20;53.50
18577;DHT22;9418;52.694;13.294;2023-04-10T01:13:07;2.20;54.70
18577;DHT22;9418;52.694;13.294;2023-04-10T01:15:41;2.10;55.00
18577;DHT22;9418;52.694;13.294;2023-04-10T01:18:18;2.10;55.80
18577;DHT22;9418;52.694;13.294;2023-04-10T01:20:48;2.00;53.80
18577;DHT22;9418;52.694;13.294;2023-04-10T01:23:39;2.00;55.90
18577;DHT22;9418;52.694;13.294;2023-04-10T01:26:08;2.00;55.10
18577;DHT22;9418;52.694;13.294;2023-04-10T01:28:55;2.10;52.10
18577;DHT22;9418;52.694;13.294;2023-04-10T01:31:29;2.00;54.90
18577;DHT22;9418;52.694;13.294;2023-04-10T01:34:03;2.10;54.70
18577;DHT22;9418;52.694;13.294;2023-04-10T01:36:35;2.00;60.50
18577;DHT22;9418;52.694;13.294;2023-04-10T01:39:03;1.90;61.70
18577;DHT22;9418;52.694;13.294;2023-04-10T01:41:32;1.90;62.30
18577;DHT22;9418;52.694;13.294;2023-04-10T01:44:02;1.90;62.60
18577;DHT22;9418;52.694;13.294;2023-04-10T01:46:30;1.90;59.40
18577;DHT22;9418;52.694;13.294;2023-04-10T01:49:00;2.00;59.80
18577;DHT22;9418;52.694;13.294;2023-04-10T01:51:29;1.90;67.40
18577;DHT22;9418;52.694;13.294;2023-04-10T01:53:57;1.80;67.90
18577;DHT22;9418;52.694;13.294;2023-04-10T01:56:24;1.80;67.40
18577;DHT22;9418;52.694;13.294;2023-04-10T01:58:51;1.70;67.60
18577;DHT22;9418;52.694;13.294;2023-04-10T02:01:19;1.70;67.60
18577;DHT22;9418;52.694;13.294;2023-04-10T02:03:46;1.60;67.00
18577;DHT22;9418;52.694;13.294;2023-04-10T02:06:15;1.70;64.10
18577;DHT22;9418;52.694;13.294;2023-04-10T02:08:52;1.80;58.10
18577;DHT22;9418;52.694;13.294;2023-04-10T02:11:24;1.60;60.20
18577;DHT22;9418;52.694;13.294;2023-04-10T02:13:53;1.60;57.70
18577;DHT22;9418;52.694;13.294;2023-04-10T02:16:26;1.60;56.80
18577;DHT22;9418;52.694;13.294;2023-04-10T02:18:54;1.60;56.90
18577;DHT22;9418;52.694;13.294;2023-04-10T02:21:21;1.50;58.20
18577;DHT22;9418;52.694;13.294;2023-04-10T02:23:48;1.50;59.50
18577;DHT22;9418;52.694;13.294;2023-04-10T02:26:15;1.40;60.70
18577;DHT22;9418;52.694;13.294;2023-04-10T02:28:41;1.40;61.70
18577;DHT22;9418;52.694;13.294;2023-04-10T02:31:08;1.40;62.40
18577;DHT22;9418;52.694;13.294;2023-04-10T02:33:36;1.30;63.50
18577;DHT22;9418;52.694;13.294;2023-04-10T02:36:03;1.30;62.80
18577;DHT22;9418;52.694;13.294;2023-04-10T02:38:30;1.30;63.20
18577;DHT22;9418;52.694;13.294;2023-04-10T02:40:56;1.30;62.20
18577;DHT22;9418;52.694;13.294;2023-04-10T02:43:23;1.20;62.00
18577;DHT22;9418;52.694;13.294;2023-04-10T02:45:49;1.30;61.70
18577;DHT22;9418;52.694;13.294;2023-04-10T02:48:16;1.30;59.10
18577;DHT22;9418;52.694;13.294;2023-04-10T02:50:44;1.30;58.30
18577;DHT22;9418;52.694;13.294;2023-04-10T02:53:12;1.40;54.90
18577;DHT22;9418;52.694;13.294;2023-04-10T02:55:39;1.30;59.30
18577;DHT22;9418;52.694;13.294;2023-04-10T02:58:06;1.30;62.00
18577;DHT22;9418;52.694;13.294;2023-04-10T03:00:32;1.20;63.30
18577;DHT22;9418;52.694;13.294;2023-04-10T03:02:59;1.20;62.30
18577;DHT22;9418;52.694;13.294;2023-04-10T03:05:25;1.10;63.40
18577;DHT22;9418;52.694;13.294;2023-04-10T03:07:54;1.10;63.80
18577;DHT22;9418;52.694;13.294;2023-04-10T03:10:21;1.00;65.20
18577;DHT22;9418;52.694;13.294;2023-04-10T03:12:48;1.10;60.10
18577;DHT22;9418;52.694;13.294;2023-04-10T03:15:15;1.10;65.70
18577;DHT22;9418;52.694;13.294;2023-04-10T03:17:42;1.10;64.60
18577;DHT22;9418;52.694;13.294;2023-04-10T03:20:09;1.10;62.80
18577;DHT22;9418;52.694;13.294;2023-04-10T03:22:36;1.00;63.20
18577;DHT22;9418;52.694;13.294;2023-04-10T03:25:06;1.00;62.80
18577;DHT22;9418;52.694;13.294;2023-04-10T03:27:32;1.10;58.70
18577;DHT22;9418;52.694;13.294;2023-04-10T03:29:59;1.00;59.60
18577;DHT22;9418;52.694;13.294;2023-04-10T03:32:27;1.00;59.40
18577;DHT22;9418;52.694;13.294;2023-04-10T03:34:56;1.00;60.80
18577;DHT22;9418;52.694;13.294;2023-04-10T03:37:22;0.90;62.70
18577;DHT22;9418;52.694;13.294;2023-04-10T03:39:49;0.90;62.40
18577;DHT22;9418;52.694;13.294;2023-04-10T03:42:17;1.00;61.20
18577;DHT22;9418;52.694;13.294;2023-04-10T03:44:43;1.10;58.90
18577;DHT22;9418;52.694;13.294;2023-04-10T03:47:10;1.00;62.60
18577;DHT22;9418;52.694;13.294;2023-04-10T03:49:36;1.00;63.00
18577;DHT22;9418;52.694;13.294;2023-04-10T03:52:03;1.00;62.60
18577;DHT22;9418;52.694;13.294;2023-04-10T03:54:30;1.00;62.40
18577;DHT22;9418;52.694;13.294;2023-04-10T03:56:56;1.00;63.00
18577;DHT22;9418;52.694;13.294;2023-04-10T03:59:24;0.90;62.10
18577;DHT22;9418;52.694;13.294;2023-04-10T04:01:51;1.00;62.10
18577;DHT22;9418;52.694;13.294;2023-04-10T04:04:18;0.90;61.70
18577;DHT22;9418;52.694;13.294;2023-04-10T04:06:45;0.90;61.70
18577;DHT22;9418;52.694;13.294;2023-04-10T04:09:11;0.90;60.70
18577;DHT22;9418;52.694;13.294;2023-04-10T04:11:38;0.90;62.20
18577;DHT22;9418;52.694;13.294;2023-04-10T04:14:04;0.80;64.00
18577;DHT22;9418;52.694;13.294;2023-04-10T04:16:32;0.90;62.20
18577;DHT22;9418;52.694;13.294;2023-04-10T04:18:59;0.90;61.80
18577;DHT22;9418;52.694;13.294;2023-04-10T04:21:25;0.90;62.20
18577;DHT22;9418;52.694;13.294;2023-04-10T04:23:52;0.80;63.80
18577;DHT22;9418;52.694;13.294;2023-04-10T04:26:19;0.80;64.40
18577;DHT22;9418;52.694;13.294;2023-04-10T04:28:46;0.80;63.60
18577;DHT22;9418;52.694;13.294;2023-04-10T04:31:13;0.90;63.00
18577;DHT22;9418;52.694;13.294;2023-04-10T04:33:41;0.90;64.30
18577;DHT22;9418;52.694;13.294;2023-04-10T04:36:08;1.00;62.70
18577;DHT22;9418;52.694;13.294;2023-04-10T04:38:35;1.00;64.20
18577;DHT22;9418;52.694;13.294;2023-04-10T04:41:02;1.00;65.60
18577;DHT22;9418;52.694;13.294;2023-04-10T04:43:28;1.00;65.70
18577;DHT22;9418;52.694;13.294;2023-04-10T04:45:55;1.00;65.70
18577;DHT22;9418;52.694;13.294;2023-04-10T04:48:22;1.00;67.00
18577;DHT22;9418;52.694;13.294;2023-04-10T04:50:50;1.00;68.20
18577;DHT22;9418;52.694;13.294;2023-04-10T04:53:16;1.10;67.50
18577;DHT22;9418;52.694;13.294;2023-04-10T04:55:43;1.20;66.60
18577;DHT22;9418;52.694;13.294;2023-04-10T04:58:10;1.20;66.20
18577;DHT22;9418;52.694;13.294;2023-04-10T05:00:36;1.20;69.00
18577;DHT22;9418;52.694;13.294;2023-04-10T05:03:03;1.30;71.30
18577;DHT22;9418;52.694;13.294;2023-04-10T05:05:31;1.40;70.60
18577;DHT22;9418;52.694;13.294;2023-04-10T05:07:58;1.40;70.20
18577;DHT22;9418;52.694;13.294;2023-04-10T05:10:25;1.50;71.30
18577;DHT22;9418;52.694;13.294;2023-04-10T05:12:52;1.50;70.70
18577;DHT22;9418;52.694;13.294;2023-04-10T05:15:18;1.60;73.10
18577;DHT22;9418;52.694;13.294;2023-04-10T05:17:45;1.70;72.70
18577;DHT22;9418;52.694;13.294;2023-04-10T05:20:15;1.80;70.90
18577;DHT22;9418;52.694;13.294;2023-04-10T05:22:42;1.90;72.00
18577;DHT22;9418;52.694;13.294;2023-04-10T05:25:10;2.00;71.50
18577;DHT22;9418;52.694;13.294;2023-04-10T05:27:37;2.10;71.60
18577;DHT22;9418;52.694;13.294;2023-04-10T05:30:04;2.20;71.40
18577;DHT22;9418;52.694;13.294;2023-04-10T05:32:30;2.40;70.80
18577;DHT22;9418;52.694;13.294;2023-04-10T05:34:57;2.50;70.90
18577;DHT22;9418;52.694;13.294;2023-04-10T05:37:24;2.70;71.00
18577;DHT22;9418;52.694;13.294;2023-04-10T05:39:50;2.80;75.80
18577;DHT22;9418;52.694;13.294;2023-04-10T05:42:18;3.00;74.70
18577;DHT22;9418;52.694;13.294;2023-04-10T05:44:45;3.10;73.60
18577;DHT22;9418;52.694;13.294;2023-04-10T05:47:11;3.30;71.90
18577;DHT22;9418;52.694;13.294;2023-04-10T05:49:38;3.50;71.10
18577;DHT22;9418;52.694;13.294;2023-04-10T05:52:04;3.70;76.50
18577;DHT22;9418;52.694;13.294;2023-04-10T05:54:31;3.90;78.60
18577;DHT22;9418;52.694;13.294;2023-04-10T05:56:57;4.10;79.30
18577;DHT22;9418;52.694;13.294;2023-04-10T05:59:25;4.20;82.60
18577;DHT22;9418;52.694;13.294;2023-04-10T06:01:52;4.50;76.70
18577;DHT22;9418;52.694;13.294;2023-04-10T06:04:18;4.80;71.90
18577;DHT22;9418;52.694;13.294;2023-04-10T06:06:46;5.10;69.60
18577;DHT22;9418;52.694;13.294;2023-04-10T06:09:13;5.30;76.80
18577;DHT22;9418;52.694;13.294;2023-04-10T06:11:39;5.80;76.20
18577;DHT22;9418;52.694;13.294;2023-04-10T06:14:06;6.30;83.40
18577;DHT22;9418;52.694;13.294;2023-04-10T06:16:34;6.40;99.90
18577;DHT22;9418;52.694;13.294;2023-04-10T06:19:00;7.00;99.90
18577;DHT22;9418;52.694;13.294;2023-04-10T06:21:27;7.40;99.90
18577;DHT22;9418;52.694;13.294;2023-04-10T06:23:53;7.70;99.90
18577;DHT22;9418;52.694;13.294;2023-04-10T06:26:20;7.70;99.90
18577;DHT22;9418;52.694;13.294;2023-04-10T06:28:47;7.60;99.90
18577;DHT22;9418;52.694;13.294;2023-04-10T06:31:18;7.60;99.90
18577;DHT22;9418;52.694;13.294;2023-04-10T06:33:48;7.70;99.90
18577;DHT22;9418;52.694;13.294;2023-04-10T06:36:14;7.70;99.90
18577;DHT22;9418;52.694;13.294;2023-04-10T06:38:41;7.80;99.90
18577;DHT22;9418;52.694;13.294;2023-04-10T06:41:08;7.80;99.90
18577;DHT22;9418;52.694;13.294;2023-04-10T06:43:35;7.90;99.90
18577;DHT22;9418;52.694;13.294;2023-04-10T06:46:02;8.00;99.90
18577;DHT22;9418;52.694;13.294;2023-04-10T06:48:29;8.00;99.90
18577;DHT22;9418;52.694;13.294;2023-04-10T06:50:57;8.10;99.90
18577;DHT22;9418;52.694;13.294;2023-04-10T06:53:24;8.40;99.90
18577;DHT22;9418;52.694;13.294;2023-04-10T06:55:51;8.40;99.90
18577;DHT22;9418;52.694;13.294;2023-04-10T06:58:18;8.50;99.90
18577;DHT22;9418;52.694;13.294;2023-04-10T07:00:45;8.60;99.90
18577;DHT22;9418;52.694;13.294;2023-04-10T07:03:11;8.70;99.90
18577;DHT22;9418;52.694;13.294;2023-04-10T07:05:38;8.70;99.90
18577;DHT22;9418;52.694;13.294;2023-04-10T07:08:06;9.00;99.90
18577;DHT22;9418;52.694;13.294;2023-04-10T07:10:33;9.10;99.90
18577;DHT22;9418;52.694;13.294;2023-04-10T07:13:00;9.30;99.90
18577;DHT22;9418;52.694;13.294;2023-04-10T07:15:27;9.30;99.90
18577;DHT22;9418;52.694;13.294;2023-04-10T07:17:54;9.40;99.90
18577;DHT22;9418;52.694;13.294;2023-04-10T07:20:21;9.40;99.90
18577;DHT22;9418;52.694;13.294;2023-04-10T07:22:47;9.40;99.90
18577;DHT22;9418;52.694;13.294;2023-04-10T07:25:15;9.50;99.90
18577;DHT22;9418;52.694;13.294;2023-04-10T07:27:42;9.50;99.90
18577;DHT22;9418;52.694;13.294;2023-04-10T07:30:09;9.90;99.90
18577;DHT22;9418;52.694;13.294;2023-04-10T07:32:36;10.20;21.70
18577;DHT22;9418;52.694;13.294;2023-04-10T07:35:05;10.40;38.80
18577;DHT22;9418;52.694;13.294;2023-04-10T07:37:31;10.60;56.80
18577;DHT22;9418;52.694;13.294;2023-04-10T07:39:58;10.80;59.90
18577;DHT22;9418;52.694;13.294;2023-04-10T07:42:26;11.00;87.90
18577;DHT22;9418;52.694;13.294;2023-04-10T07:44:53;11.20;99.90
18577;DHT22;9418;52.694;13.294;2023-04-10T07:47:19;11.60;99.90
18577;DHT22;9418;52.694;13.294;2023-04-10T07:49:47;11.90;99.90
18577;DHT22;9418;52.694;13.294;2023-04-10T07:52:16;12.20;99.90
18577;DHT22;9418;52.694;13.294;2023-04-10T07:54:43;12.40;99.90
18577;DHT22;9418;52.694;13.294;2023-04-10T07:57:09;12.50;99.90
18577;DHT22;9418;52.694;13.294;2023-04-10T07:59:38;12.50;99.90
18577;DHT22;9418;52.694;13.294;2023-04-10T08:02:05;12.60;99.90
18577;DHT22;9418;52.694;13.294;2023-04-10T08:04:32;12.60;20.50
18577;DHT22;9418;52.694;13.294;2023-04-10T08:06:59;12.70;23.80
18577;DHT22;9418;52.694;13.294;2023-04-10T08:09:26;12.90;38.00
18577;DHT22;9418;52.694;13.294;2023-04-10T08:11:53;12.90;48.20
18577;DHT22;9418;52.694;13.294;2023-04-10T08:14:19;13.00;48.20
18577;DHT22;9418;52.694;13.294;2023-04-10T08:16:47;13.50;69.70
18577;DHT22;9418;52.694;13.294;2023-04-10T08:19:14;13.60;95.40
18577;DHT22;9418;52.694;13.294;2023-04-10T08:21:40;13.50;99.90
18577;DHT22;9418;52.694;13.294;2023-04-10T08:24:07;12.70;99.90
18577;DHT22;9418;52.694;13.294;2023-04-10T08:26:33;13.10;93.80
18577;DHT22;9418;52.694;13.294;2023-04-10T08:29:00;13.40;99.90
18577;DHT22;9418;52.694;13.294;2023-04-10T08:31:27;13.70;99.90
18577;DHT22;9418;52.694;13.294;2023-04-10T08:33:55;13.50;99.90
18577;DHT22;9418;52.694;13.294;2023-04-10T08:36:22;13.70;99.90
18577;DHT22;9418;52.694;13.294;2023-04-10T08:38:49;14.20;99.90
18577;DHT22;9418;52.694;13.294;2023-04-10T08:41:17;14.30;99.90
18577;DHT22;9418;52.694;13.294;2023-04-10T08:43:43;14.40;99.90
18577;DHT22;9418;52.694;13.294;2023-04-10T08:46:10;14.60;99.90
18577;DHT22;9418;52.694;13.294;2023-04-10T08:48:38;15.20;99.90
18577;DHT22;9418;52.694;13.294;2023-04-10T08:51:13;15.40;99.90
18577;DHT22;9418;52.694;13.294;2023-04-10T08:53:42;15.60;99.90
18577;DHT22;9418;52.694;13.294;2023-04-10T08:56:11;16.40;99.90
18577;DHT22;9418;52.694;13.294;2023-04-10T08:58:39;16.30;99.90
18577;DHT22;9418;52.694;13.294;2023-04-10T09:01:06;16.90;99.90
18577;DHT22;9418;52.694;13.294;2023-04-10T09:03:34;17.70;99.90
18577;DHT22;9418;52.694;13.294;2023-04-10T09:06:02;18.20;99.90
18577;DHT22;9418;52.694;13.294;2023-04-10T09:08:31;17.90;99.90
18577;DHT22;9418;52.694;13.294;2023-04-10T09:10:57;17.60;99.90
18577;DHT22;9418;52.694;13.294;2023-04-10T09:13:38;17.20;99.90
18577;DHT22;9418;52.694;13.294;2023-04-10T09:16:06;18.30;99.90
18577;DHT22;9418;52.694;13.294;2023-04-10T09:18:43;18.20;99.90
18577;DHT22;9418;52.694;13.294;2023-04-10T09:21:12;18.40;99.90
18577;DHT22;9418;52.694;13.294;2023-04-10T09:23:42;18.10;99.90
18577;DHT22;9418;52.694;13.294;2023-04-10T09:26:25;18.00;99.90
18577;DHT22;9418;52.694;13.294;2023-04-10T09:28:57;18.30;99.90
18577;DHT22;9418;52.694;13.294;2023-04-10T09:31:31;18.00;99.90
18577;DHT22;9418;52.694;13.294;2023-04-10T09:34:12;17.80;99.90
18577;DHT22;9418;52.694;13.294;2023-04-10T09:36:39;17.70;99.90
18577;DHT22;9418;52.694;13.294;2023-04-10T09:39:11;17.80;99.90
18577;DHT22;9418;52.694;13.294;2023-04-10T09:41:50;17.40;99.90
18577;DHT22;9418;52.694;13.294;2023-04-10T09:44:26;17.90;99.90
18577;DHT22;9418;52.694;13.294;2023-04-10T09:46:54;18.20;99.90
18577;DHT22;9418;52.694;13.294;2023-04-10T09:49:20;17.60;99.90
18577;DHT22;9418;52.694;13.294;2023-04-10T09:51:48;17.30;99.90
18577;DHT22;9418;52.694;13.294;2023-04-10T09:54:16;16.70;99.90
18577;DHT22;9418;52.694;13.294;2023-04-10T09:56:44;16.80;99.90
18577;DHT22;9418;52.694;13.294;2023-04-10T09:59:12;16.50;99.90
18577;DHT22;9418;52.694;13.294;2023-04-10T10:01:39;17.60;99.90
18577;DHT22;9418;52.694;13.294;2023-04-10T10:04:07;18.40;99.90
18577;DHT22;9418;52.694;13.294;2023-04-10T10:06:33;17.90;99.90
18577;DHT22;9418;52.694;13.294;2023-04-10T10:09:01;18.80;99.90
18577;DHT22;9418;52.694;13.294;2023-04-10T10:11:32;18.90;99.90
18577;DHT22;9418;52.694;13.294;2023-04-10T10:14:02;19.20;99.90
18577;DHT22;9418;52.694;13.294;2023-04-10T10:16:33;18.50;99.90
18577;DHT22;9418;52.694;13.294;2023-04-10T10:19:08;18.90;99.90
18577;DHT22;9418;52.694;13.294;2023-04-10T10:21:38;19.10;99.90
18577;DHT22;9418;52.694;13.294;2023-04-10T10:24:07;19.20;99.90
18577;DHT22;9418;52.694;13.294;2023-04-10T10:26:37;18.40;99.90
18577;DHT22;9418;52.694;13.294;2023-04-10T10:29:06;19.00;99.90
18577;DHT22;9418;52.694;13.294;2023-04-10T10:31:35;19.90;99.90
18577;DHT22;9418;52.694;13.294;2023-04-10T10:34:02;19.70;99.90
18577;DHT22;9418;52.694;13.294;2023-04-10T10:36:32;19.90;99.90
18577;DHT22;9418;52.694;13.294;2023-04-10T10:39:14;19.00;99.90
18577;DHT22;9418;52.694;13.294;2023-04-10T10:41:50;18.90;99.90
18577;DHT22;9418;52.694;13.294;2023-04-10T10:44:28;19.00;99.90
18577;DHT22;9418;52.694;13.294;2023-04-10T10:47:06;18.20;99.90
18577;DHT22;9418;52.694;13.294;2023-04-10T10:49:55;18.20;99.90
18577;DHT22;9418;52.694;13.294;2023-04-10T10:52:39;18.30;99.90
18577;DHT22;9418;52.694;13.294;2023-04-10T10:55:29;18.60;99.90
18577;DHT22;9418;52.694;13.294;2023-04-10T10:57:59;18.10;99.90
18577;DHT22;9418;52.694;13.294;2023-04-10T11:01:05;18.60;99.90
18577;DHT22;9418;52.694;13.294;2023-04-10T11:03:35;18.80;99.90
18577;DHT22;9418;52.694;13.294;2023-04-10T11:06:03;17.80;99.90
18577;DHT22;9418;52.694;13.294;2023-04-10T11:08:36;17.70;99.90
18577;DHT22;9418;52.694;13.294;2023-04-10T11:11:07;17.90;99.90
18577;DHT22;9418;52.694;13.294;2023-04-10T11:13:37;17.70;99.90
18577;DHT22;9418;52.694;13.294;2023-04-10T11:16:06;17.20;99.90
18577;DHT22;9418;52.694;13.294;2023-04-10T11:19:02;17.30;99.90
18577;DHT22;9418;52.694;13.294;2023-04-10T11:21:30;17.70;99.90
18577;DHT22;9418;52.694;13.294;2023-04-10T11:24:04;17.40;99.90
18577;DHT22;9418;52.694;13.294;2023-04-10T11:26:39;17.80;99.90
18577;DHT22;9418;52.694;13.294;2023-04-10T11:29:32;18.40;99.90
18577;DHT22;9418;52.694;13.294;2023-04-10T11:32:00;18.00;99.90
18577;DHT22;9418;52.694;13.294;2023-04-10T11:34:27;17.90;99.90
18577;DHT22;9418;52.694;13.294;2023-04-10T11:36:55;17.70;99.90
18577;DHT22;9418;52.694;13.294;2023-04-10T11:39:22;17.70;99.90
18577;DHT22;9418;52.694;13.294;2023-04-10T11:41:50;17.50;99.90
18577;DHT22;9418;52.694;13.294;2023-04-10T11:44:26;17.50;99.90
18577;DHT22;9418;52.694;13.294;2023-04-10T11:46:53;17.40;99.90
18577;DHT22;9418;52.694;13.294;2023-04-10T11:49:21;17.60;99.90
18577;DHT22;9418;52.694;13.294;2023-04-10T11:51:50;17.70;99.90
18577;DHT22;9418;52.694;13.294;2023-04-10T11:54:18;17.60;99.90
18577;DHT22;9418;52.694;13.294;2023-04-10T11:56:54;18.40;99.90
18577;DHT22;9418;52.694;13.294;2023-04-10T11:59:24;18.30;99.90
18577;DHT22;9418;52.694;13.294;2023-04-10T12:01:51;17.80;99.90
18577;DHT22;9418;52.694;13.294;2023-04-10T12:04:21;17.90;99.90
18577;DHT22;9418;52.694;13.294;2023-04-10T12:06:50;18.10;99.90
18577;DHT22;9418;52.694;13.294;2023-04-10T12:09:18;18.10;99.90
18577;DHT22;9418;52.694;13.294;2023-04-10T12:11:49;17.60;99.90
18577;DHT22;9418;52.694;13.294;2023-04-10T12:14:17;17.90;99.90
18577;DHT22;9418;52.694;13.294;2023-04-10T12:16:45;18.40;99.90
18577;DHT22;9418;52.694;13.294;2023-04-10T12:19:13;18.70;99.90
18577;DHT22;9418;52.694;13.294;2023-04-10T12:21:40;18.90;99.90
18577;DHT22;9418;52.694;13.294;2023-04-10T12:24:07;17.90;99.90
18577;DHT22;9418;52.694;13.294;2023-04-10T12:26:34;18.50;99.90
18577;DHT22;9418;52.694;13.294;2023-04-10T12:29:01;18.90;99.90
18577;DHT22;9418;52.694;13.294;2023-04-10T12:31:29;18.40;99.90
18577;DHT22;9418;52.694;13.294;2023-04-10T12:33:57;18.60;99.90
18577;DHT22;9418;52.694;13.294;2023-04-10T12:36:26;18.40;99.90
18577;DHT22;9418;52.694;13.294;2023-04-10T12:38:55;18.60;99.90
18577;DHT22;9418;52.694;13.294;2023-04-10T12:41:23;18.90;99.90
18577;DHT22;9418;52.694;13.294;2023-04-10T12:43:51;19.00;99.90
18577;DHT22;9418;52.694;13.294;2023-04-10T12:46:23;19.40;99.90
18577;DHT22;9418;52.694;13.294;2023-04-10T12:48:50;18.60;99.90
18577;DHT22;9418;52.694;13.294;2023-04-10T12:51:18;19.80;99.90
18577;DHT22;9418;52.694;13.294;2023-04-10T12:53:45;19.60;99.90
18577;DHT22;9418;52.694;13.294;2023-04-10T12:56:12;20.20;99.90
18577;DHT22;9418;52.694;13.294;2023-04-10T12:58:39;18.70;99.90
18577;DHT22;9418;52.694;13.294;2023-04-10T13:01:08;19.10;99.90
18577;DHT22;9418;52.694;13.294;2023-04-10T13:03:35;18.90;99.90
18577;DHT22;9418;52.694;13.294;2023-04-10T13:06:02;19.20;99.90
18577;DHT22;9418;52.694;13.294;2023-04-10T13:08:31;19.40;99.90
18577;DHT22;9418;52.694;13.294;2023-04-10T13:10:58;18.70;99.90
18577;DHT22;9418;52.694;13.294;2023-04-10T13:13:27;18.50;99.90
18577;DHT22;9418;52.694;13.294;2023-04-10T13:15:54;18.40;99.90
18577;DHT22;9418;52.694;13.294;2023-04-10T13:18:21;18.50;99.90
18577;DHT22;9418;52.694;13.294;2023-04-10T13:20:47;18.80;99.90
18577;DHT22;9418;52.694;13.294;2023-04-10T13:23:14;19.00;99.90
18577;DHT22;9418;52.694;13.294;2023-04-10T13:25:42;18.90;99.90
18577;DHT22;9418;52.694;13.294;2023-04-10T13:28:09;19.10;99.90
18577;DHT22;9418;52.694;13.294;2023-04-10T13:30:36;19.10;99.90
18577;DHT22;9418;52.694;13.294;2023-04-10T13:33:03;18.80;99.90
18577;DHT22;9418;52.694;13.294;2023-04-10T13:35:29;19.10;99.90
18577;DHT22;9418;52.694;13.294;2023-04-10T13:37:56;19.20;99.90
18577;DHT22;9418;52.694;13.294;2023-04-10T13:40:22;19.50;99.90
18577;DHT22;9418;52.694;13.294;2023-04-10T13:42:50;19.10;99.90
18577;DHT22;9418;52.694;13.294;2023-04-10T13:45:17;19.60;99.90
18577;DHT22;9418;52.694;13.294;2023-04-10T13:47:43;19.30;99.90
18577;DHT22;9418;52.694;13.294;2023-04-10T13:50:10;19.70;99.90
18577;DHT22;9418;52.694;13.294;2023-04-10T13:52:37;19.70;99.90
18577;DHT22;9418;52.694;13.294;2023-04-10T13:55:04;19.10;99.90
18577;DHT22;9418;52.694;13.294;2023-04-10T13:57:31;19.70;99.90
18577;DHT22;9418;52.694;13.294;2023-04-10T13:59:59;19.60;99.90
18577;DHT22;9418;52.694;13.294;2023-04-10T14:02:26;19.50;99.90
18577;DHT22;9418;52.694;13.294;2023-04-10T14:04:53;20.20;99.90
18577;DHT22;9418;52.694;13.294;2023-04-10T14:07:19;19.50;99.90
18577;DHT22;9418;52.694;13.294;2023-04-10T14:09:46;20.20;99.90
18577;DHT22;9418;52.694;13.294;2023-04-10T14:12:12;20.00;99.90
18577;DHT22;9418;52.694;13.294;2023-04-10T14:14:41;20.00;99.90
18577;DHT22;9418;52.694;13.294;2023-04-10T14:17:09;19.10;99.90
18577;DHT22;9418;52.694;13.294;2023-04-10T14:19:36;18.50;99.90
18577;DHT22;9418;52.694;13.294;2023-04-10T14:22:03;18.00;99.90
18577;DHT22;9418;52.694;13.294;2023-04-10T14:24:30;17.30;99.90
18577;DHT22;9418;52.694;13.294;2023-04-10T14:26:56;17.40;99.90
18577;DHT22;9418;52.694;13.294;2023-04-10T14:29:25;17.40;99.90
18577;DHT22;9418;52.694;13.294;2023-04-10T14:31:52;17.40;99.90
18577;DHT22;9418;52.694;13.294;2023-04-10T14:34:20;17.40;99.90
18577;DHT22;9418;52.694;13.294;2023-04-10T14:36:46;17.40;99.90
18577;DHT22;9418;52.694;13.294;2023-04-10T14:39:13;17.10;99.90
18577;DHT22;9418;52.694;13.294;2023-04-10T14:41:39;17.50;99.90
18577;DHT22;9418;52.694;13.294;2023-04-10T14:44:06;17.70;99.90
18577;DHT22;9418;52.694;13.294;2023-04-10T14:46:33;18.10;99.90
18577;DHT22;9418;52.694;13.294;2023-04-10T14:48:59;18.40;99.90
18577;DHT22;9418;52.694;13.294;2023-04-10T14:51:27;18.30;99.90
18577;DHT22;9418;52.694;13.294;2023-04-10T14:53:54;17.50;99.90
18577;DHT22;9418;52.694;13.294;2023-04-10T14:56:20;17.60;99.90
18577;DHT22;9418;52.694;13.294;2023-04-10T14:58:47;18.30;99.90
18577;DHT22;9418;52.694;13.294;2023-04-10T15:01:14;18.50;99.90
18577;DHT22;9418;52.694;13.294;2023-04-10T15:03:40;18.70;99.90
18577;DHT22;9418;52.694;13.294;2023-04-10T15:06:07;18.40;99.90
18577;DHT22;9418;52.694;13.294;2023-04-10T15:08:35;19.20;99.90
18577;DHT22;9418;52.694;13.294;2023-04-10T15:11:02;19.40;99.90
18577;DHT22;9418;52.694;13.294;2023-04-10T15:13:29;19.30;99.90
18577;DHT22;9418;52.694;13.294;2023-04-10T15:15:56;18.30;99.90
18577;DHT22;9418;52.694;13.294;2023-04-10T15:18:24;18.70;99.90
18577;DHT22;9418;52.694;13.294;2023-04-10T15:20:50;18.70;99.90
18577;DHT22;9418;52.694;13.294;2023-04-10T15:23:19;18.30;99.90
18577;DHT22;9418;52.694;13.294;2023-04-10T15:25:47;18.00;99.90
18577;DHT22;9418;52.694;13.294;2023-04-10T15:28:14;18.10;99.90
18577;DHT22;9418;52.694;13.294;2023-04-10T15:30:43;18.50;99.90
18577;DHT22;9418;52.694;13.294;2023-04-10T15:33:12;18.60;99.90
18577;DHT22;9418;52.694;13.294;2023-04-10T15:35:39;17.80;99.90
18577;DHT22;9418;52.694;13.294;2023-04-10T15:38:06;17.70;99.90
18577;DHT22;9418;52.694;13.294;2023-04-10T15:40:33;18.00;99.90
18577;DHT22;9418;52.694;13.294;2023-04-10T15:43:00;18.70;99.90
18577;DHT22;9418;52.694;13.294;2023-04-10T15:45:27;18.70;99.90